Time;durP1;ratioP1;P1;durP2;ratioP2;P2;SDS_P1;SDS_P2;PMS_P1;PMS_P2;Temp;Humidity;BMP_temperature;BMP_pressure;BME280_temperature;BME280_humidity;BME280_pressure;Samples;Min_cycle;Max_cycle;Signal;HPM_P1;HPM_P2
2022/03/15 00:01:10;;;;;;;29.77;6.13;;;3.40;99.90;;;;;;4988512;28;20081;-70
2022/03/15 00:03:36;;;;;;;22.30;5.57;;;3.20;99.90;;;;;;4970396;28;20039;-69
2022/03/15 00:06:02;;;;;;;18.85;5.90;;;3.20;99.90;;;;;;4988450;28;20100;-69
2022/03/15 00:08:29;;;;;;;21.30;5.60;;;3.10;99.90;;;;;;4988518;28;20552;-69
2022/03/15 00:10:58;;;;;;;22.17;5.30;;;3.00;99.90;;;;;;4987919;28;20570;-69
2022/03/15 00:13:28;;;;;;;19.02;4.65;;;2.90;99.90;;;;;;4989815;28;20061;-69
2022/03/15 00:15:55;;;;;;;16.45;4.75;;;2.80;99.90;;;;;;4989495;28;20053;-70
2022/03/15 00:18:20;;;;;;;17.13;4.88;;;2.80;99.90;;;;;;5009796;28;20092;-69
2022/03/15 00:20:47;;;;;;;14.05;5.03;;;2.70;99.90;;;;;;4972007;28;20050;-69
2022/03/15 00:23:13;;;;;;;19.27;5.13;;;2.60;99.90;;;;;;4990378;28;20049;-69
2022/03/15 00:25:39;;;;;;;17.58;5.20;;;2.60;99.90;;;;;;4989516;28;20042;-70
2022/03/15 00:28:05;;;;;;;20.27;5.40;;;2.50;99.90;;;;;;5007190;28;20034;-69
2022/03/15 00:30:31;;;;;;;23.00;5.00;;;2.60;99.90;;;;;;4990019;28;20136;-70
2022/03/15 00:32:56;;;;;;;19.70;5.28;;;2.50;99.90;;;;;;4992393;28;20487;-69
2022/03/15 00:35:24;;;;;;;17.67;5.00;;;2.50;99.90;;;;;;4980944;28;20038;-70
2022/03/15 00:37:52;;;;;;;14.48;4.43;;;2.50;99.90;;;;;;4968195;28;20046;-70
2022/03/15 00:40:19;;;;;;;12.05;4.15;;;2.50;99.90;;;;;;4989934;28;20117;-70
2022/03/15 00:42:47;;;;;;;19.65;5.10;;;2.60;99.90;;;;;;4989307;28;20526;-69
2022/03/15 00:45:18;;;;;;;23.85;4.78;;;2.60;99.90;;;;;;4990742;28;20045;-70
2022/03/15 00:47:44;;;;;;;17.85;4.63;;;2.60;99.90;;;;;;4989272;28;20050;-69
2022/03/15 00:50:10;;;;;;;18.23;4.10;;;2.50;99.90;;;;;;4973296;28;20049;-70
2022/03/15 00:52:36;;;;;;;16.95;4.22;;;2.50;99.90;;;;;;4989237;28;20049;-70
2022/03/15 00:55:03;;;;;;;16.30;4.40;;;2.50;99.90;;;;;;4988207;28;20085;-69
2022/03/15 00:57:28;;;;;;;16.30;4.50;;;2.40;99.90;;;;;;4991851;28;20089;-69
2022/03/15 00:59:55;;;;;;;22.95;4.97;;;2.40;99.90;;;;;;5005173;28;20107;-70
2022/03/15 01:02:20;;;;;;;19.08;5.10;;;2.50;99.90;;;;;;4993641;28;20100;-69
2022/03/15 01:04:46;;;;;;;17.05;4.75;;;2.60;99.90;;;;;;5021960;28;20050;-69
2022/03/15 01:07:12;;;;;;;27.90;5.38;;;2.60;99.90;;;;;;4969706;28;20042;-69
2022/03/15 01:09:41;;;;;;;18.08;4.38;;;2.70;99.90;;;;;;5021496;28;20410;-70
2022/03/15 01:12:08;;;;;;;13.13;4.38;;;2.70;99.90;;;;;;4973087;28;20054;-69
2022/03/15 01:14:34;;;;;;;24.80;5.50;;;2.80;99.90;;;;;;5004614;28;20046;-69
2022/03/15 01:17:00;;;;;;;20.63;5.20;;;2.80;99.90;;;;;;4969395;28;20125;-69
2022/03/15 01:19:26;;;;;;;10.75;4.57;;;2.80;99.90;;;;;;5025452;28;20211;-69
2022/03/15 01:21:52;;;;;;;20.00;4.90;;;2.80;99.90;;;;;;5002116;28;20051;-69
2022/03/15 01:24:19;;;;;;;28.73;5.07;;;2.80;99.90;;;;;;4980181;28;20524;-70
2022/03/15 01:26:45;;;;;;;24.35;5.68;;;2.90;99.90;;;;;;4999299;28;20188;-69
2022/03/15 01:29:11;;;;;;;18.38;5.82;;;2.90;99.90;;;;;;4976211;28;20050;-69
2022/03/15 01:31:37;;;;;;;17.77;5.82;;;2.90;99.90;;;;;;4985283;28;20099;-69
2022/03/15 01:34:03;;;;;;;22.60;6.28;;;2.90;99.90;;;;;;5010540;28;20042;-70
2022/03/15 01:36:30;;;;;;;28.23;6.28;;;2.90;99.90;;;;;;5005409;28;20510;-69
2022/03/15 01:38:56;;;;;;;20.63;5.90;;;2.80;99.90;;;;;;4984304;28;20619;-70
2022/03/15 01:41:22;;;;;;;36.30;7.30;;;2.90;99.90;;;;;;5015772;28;20504;-69
2022/03/15 01:43:49;;;;;;;20.42;6.25;;;2.90;99.90;;;;;;4988404;28;20060;-70
2022/03/15 01:46:16;;;;;;;26.08;7.53;;;3.00;99.90;;;;;;5005849;28;20050;-69
2022/03/15 01:48:43;;;;;;;20.58;7.10;;;2.90;99.90;;;;;;4972386;28;20073;-70
2022/03/15 01:51:11;;;;;;;20.85;6.85;;;2.80;99.90;;;;;;4985314;28;20042;-69
2022/03/15 01:53:37;;;;;;;21.60;6.55;;;2.80;99.90;;;;;;4984145;28;20050;-69
2022/03/15 01:56:03;;;;;;;19.90;5.90;;;2.70;99.90;;;;;;4985146;28;20042;-69
2022/03/15 01:58:29;;;;;;;24.83;6.60;;;2.60;99.90;;;;;;5015298;28;20091;-70
2022/03/15 02:00:55;;;;;;;18.50;6.15;;;2.60;99.90;;;;;;4986961;28;20034;-69
2022/03/15 02:03:21;;;;;;;29.67;6.20;;;2.50;99.90;;;;;;4985429;28;20046;-69
2022/03/15 02:05:46;;;;;;;14.27;6.95;;;2.50;99.90;;;;;;5003302;28;20053;-69
2022/03/15 02:08:15;;;;;;;15.68;6.75;;;2.50;99.90;;;;;;4971311;28;20042;-69
2022/03/15 02:10:41;;;;;;;24.42;7.57;;;2.50;99.90;;;;;;4983668;28;20050;-69
2022/03/15 02:13:08;;;;;;;16.85;5.57;;;2.40;99.90;;;;;;5020680;28;20046;-69
2022/03/15 02:15:34;;;;;;;15.20;5.97;;;2.40;99.90;;;;;;4985901;28;20053;-69
2022/03/15 02:17:59;;;;;;;21.13;6.97;;;2.40;99.90;;;;;;4972621;28;20403;-69
2022/03/15 02:20:26;;;;;;;26.10;7.10;;;2.40;99.90;;;;;;4977745;28;20046;-69
2022/03/15 02:22:53;;;;;;;27.92;8.35;;;2.30;99.90;;;;;;5004015;28;20038;-69
2022/03/15 02:25:18;;;;;;;29.80;9.45;;;2.30;99.90;;;;;;4985275;28;20050;-69
2022/03/15 02:27:45;;;;;;;21.63;7.72;;;2.40;99.90;;;;;;5000360;28;20588;-69
2022/03/15 02:30:11;;;;;;;25.90;7.80;;;2.40;99.90;;;;;;5003647;28;20137;-69
2022/03/15 02:32:38;;;;;;;30.60;9.70;;;2.40;99.90;;;;;;4998388;28;20511;-69
2022/03/15 02:35:07;;;;;;;19.15;6.85;;;2.50;99.90;;;;;;4972834;28;20042;-69
2022/03/15 02:37:34;;;;;;;31.98;9.23;;;2.40;99.90;;;;;;4985465;28;20048;-69
2022/03/15 02:40:00;;;;;;;28.30;8.77;;;2.40;99.90;;;;;;4967670;28;20396;-69
2022/03/15 02:42:25;;;;;;;34.03;9.20;;;2.40;99.90;;;;;;4995931;28;20077;-69
2022/03/15 02:44:51;;;;;;;30.58;9.30;;;2.30;99.90;;;;;;4988251;28;20042;-69
2022/03/15 02:47:17;;;;;;;19.00;8.00;;;2.30;99.90;;;;;;4998503;28;20054;-69
2022/03/15 02:49:43;;;;;;;37.25;8.85;;;2.20;99.90;;;;;;5023294;28;20480;-69
2022/03/15 02:52:09;;;;;;;22.90;7.25;;;2.30;99.90;;;;;;5021609;28;20565;-69
2022/03/15 02:54:40;;;;;;;27.80;8.20;;;2.30;99.90;;;;;;4995201;28;20116;-69
2022/03/15 02:57:06;;;;;;;;;;;2.40;99.90;;;;;;4972866;28;20042;-69
2022/03/15 02:59:32;;;;;;;19.02;7.13;;;2.30;99.90;;;;;;4989182;28;20338;-69
2022/03/15 03:01:59;;;;;;;20.17;7.40;;;2.30;99.90;;;;;;4988139;28;20042;-69
2022/03/15 03:04:24;;;;;;;25.88;6.90;;;2.30;99.90;;;;;;5021917;28;20492;-69
2022/03/15 03:06:51;;;;;;;21.70;7.35;;;2.20;99.90;;;;;;5009222;28;20045;-69
2022/03/15 03:09:17;;;;;;;23.63;8.65;;;2.20;99.90;;;;;;4987771;28;20496;-69
2022/03/15 03:11:43;;;;;;;29.23;9.15;;;2.20;99.90;;;;;;4978788;28;20414;-69
2022/03/15 03:14:12;;;;;;;29.83;7.18;;;2.20;99.90;;;;;;4993036;28;20049;-69
2022/03/15 03:16:39;;;;;;;27.43;8.63;;;2.30;99.90;;;;;;4988548;28;20046;-69
2022/03/15 03:19:08;;;;;;;23.60;7.78;;;2.30;99.90;;;;;;4983752;28;20675;-69
2022/03/15 03:21:36;;;;;;;34.05;8.60;;;2.40;99.90;;;;;;4975757;28;20501;-69
2022/03/15 03:24:06;;;;;;;25.75;7.45;;;2.40;99.90;;;;;;4993948;28;20113;-69
2022/03/15 03:26:34;;;;;;;29.60;9.55;;;2.50;99.90;;;;;;4991196;28;20797;-69
2022/03/15 03:29:11;;;;;;;23.70;8.60;;;2.50;99.90;;;;;;4981541;28;20065;-69
2022/03/15 03:31:42;;;;;;;29.85;9.60;;;2.50;99.90;;;;;;4976030;28;20100;-69
2022/03/15 03:34:09;;;;;;;25.48;9.05;;;2.60;99.90;;;;;;4984588;28;20053;-69
2022/03/15 03:36:36;;;;;;;33.15;10.30;;;2.70;99.90;;;;;;4988489;28;20062;-69
2022/03/15 03:39:06;;;;;;;27.38;9.73;;;2.80;99.90;;;;;;4979544;28;20057;-69
2022/03/15 03:41:32;;;;;;;21.20;9.65;;;3.00;99.90;;;;;;4987567;28;20053;-69
2022/03/15 03:43:57;;;;;;;33.05;10.05;;;2.90;99.90;;;;;;4987580;28;20471;-69
2022/03/15 03:46:24;;;;;;;30.27;10.95;;;3.00;99.90;;;;;;5002768;28;20378;-69
2022/03/15 03:48:52;;;;;;;24.42;8.90;;;3.00;99.90;;;;;;4987847;28;20046;-69
2022/03/15 03:51:19;;;;;;;25.02;8.55;;;3.00;99.90;;;;;;4998271;28;20409;-69
2022/03/15 03:53:44;;;;;;;31.63;9.23;;;2.90;99.90;;;;;;5023521;28;20045;-69
2022/03/15 03:56:10;;;;;;;26.83;9.57;;;2.90;99.90;;;;;;4979259;28;20338;-69
2022/03/15 03:58:36;;;;;;;29.15;10.27;;;2.80;99.90;;;;;;4988710;28;20142;-69
2022/03/15 04:01:02;;;;;;;26.58;9.70;;;2.70;99.90;;;;;;4963851;28;20045;-69
2022/03/15 04:03:31;;;;;;;23.50;8.90;;;2.80;99.90;;;;;;5022874;28;20182;-69
2022/03/15 04:05:57;;;;;;;24.92;9.20;;;2.70;99.90;;;;;;4991805;28;20400;-69
2022/03/15 04:08:24;;;;;;;21.25;9.25;;;2.70;99.90;;;;;;5012948;28;20054;-69
2022/03/15 04:10:50;;;;;;;24.05;9.27;;;2.70;99.90;;;;;;5022791;28;20052;-69
2022/03/15 04:13:20;;;;;;;19.45;8.43;;;2.70;99.90;;;;;;4974044;28;20050;-69
2022/03/15 04:15:46;;;;;;;26.33;9.07;;;2.70;99.90;;;;;;4988631;28;20124;-69
2022/03/15 04:18:12;;;;;;;21.40;9.45;;;2.70;99.90;;;;;;4990908;28;20042;-69
2022/03/15 04:20:39;;;;;;;28.45;10.05;;;2.70;99.90;;;;;;5003574;28;20458;-69
2022/03/15 04:23:05;;;;;;;17.85;9.32;;;2.70;99.90;;;;;;4986896;28;20034;-69
2022/03/15 04:25:31;;;;;;;26.83;9.32;;;2.70;99.90;;;;;;4962851;28;20108;-70
2022/03/15 04:28:00;;;;;;;39.50;9.65;;;2.70;99.90;;;;;;4985727;28;20134;-69
2022/03/15 04:30:27;;;;;;;19.15;8.63;;;2.70;99.90;;;;;;4987061;28;20047;-69
2022/03/15 04:32:53;;;;;;;18.15;8.55;;;2.80;99.90;;;;;;4986940;28;20057;-69
2022/03/15 04:35:19;;;;;;;22.10;8.45;;;2.70;99.90;;;;;;4986724;28;20054;-69
2022/03/15 04:37:45;;;;;;;15.98;7.93;;;2.70;99.90;;;;;;4970063;28;20555;-69
2022/03/15 04:40:12;;;;;;;20.88;8.57;;;2.60;99.90;;;;;;4973217;28;20076;-69
2022/03/15 04:42:38;;;;;;;30.10;9.77;;;2.60;99.90;;;;;;4986765;28;20133;-69
2022/03/15 04:45:05;;;;;;;23.42;10.30;;;2.70;99.90;;;;;;5021377;28;20128;-69
2022/03/15 04:47:31;;;;;;;21.45;9.32;;;2.60;99.90;;;;;;4986620;28;20050;-70
2022/03/15 04:49:57;;;;;;;17.45;8.80;;;2.60;99.90;;;;;;4999156;28;20065;-69
2022/03/15 04:52:22;;;;;;;16.65;8.95;;;2.60;99.90;;;;;;4986240;28;20099;-69
2022/03/15 04:54:49;;;;;;;21.02;8.85;;;2.60;99.90;;;;;;5002047;28;20056;-70
2022/03/15 04:57:14;;;;;;;23.73;9.73;;;2.60;99.90;;;;;;4966851;28;20409;-69
2022/03/15 04:59:40;;;;;;;24.80;10.55;;;2.60;99.90;;;;;;4989300;28;20042;-69
2022/03/15 05:02:06;;;;;;;22.13;10.88;;;2.70;99.90;;;;;;4985918;28;20483;-69
2022/03/15 05:04:32;;;;;;;28.80;10.27;;;2.70;99.90;;;;;;4950437;28;20102;-69
2022/03/15 05:06:58;;;;;;;32.88;10.23;;;2.70;99.90;;;;;;4951047;28;20404;-69
2022/03/15 05:09:25;;;;;;;24.25;9.73;;;2.70;99.90;;;;;;4969590;28;20047;-69
2022/03/15 05:11:50;;;;;;;28.23;10.95;;;2.70;99.90;;;;;;4957916;28;20734;-69
2022/03/15 05:14:16;;;;;;;26.45;10.98;;;2.80;99.90;;;;;;4963973;28;20389;-69
2022/03/15 05:16:42;;;;;;;32.35;11.48;;;2.80;99.90;;;;;;4956330;28;20046;-69
2022/03/15 05:19:08;;;;;;;23.63;10.82;;;2.90;99.90;;;;;;4953429;28;20137;-69
2022/03/15 05:21:33;;;;;;;26.85;12.20;;;2.90;99.90;;;;;;4969401;28;20042;-69
2022/03/15 05:23:59;;;;;;;26.35;11.55;;;2.90;99.90;;;;;;5002486;28;20078;-69
2022/03/15 05:26:25;;;;;;;20.42;11.43;;;3.00;99.90;;;;;;4966080;28;20043;-69
2022/03/15 05:28:51;;;;;;;32.05;13.50;;;3.00;99.90;;;;;;4958061;28;20050;-69
2022/03/15 05:31:19;;;;;;;33.42;12.57;;;3.00;99.90;;;;;;4968826;28;20388;-69
2022/03/15 05:33:46;;;;;;;27.73;11.90;;;3.10;99.90;;;;;;4953574;28;20046;-69
2022/03/15 05:36:14;;;;;;;31.08;11.93;;;3.10;99.90;;;;;;4967786;28;20493;-69
2022/03/15 05:38:41;;;;;;;25.48;12.25;;;3.10;99.90;;;;;;4969315;28;20092;-69
2022/03/15 05:41:07;;;;;;;26.77;12.55;;;3.20;99.90;;;;;;4965788;28;20125;-69
2022/03/15 05:43:37;;;;;;;35.72;13.48;;;3.20;99.90;;;;;;4966125;28;20046;-69
2022/03/15 05:46:03;;;;;;;23.00;11.97;;;3.20;99.90;;;;;;4975645;28;20109;-69
2022/03/15 05:48:29;;;;;;;29.42;12.27;;;3.20;99.90;;;;;;4968217;28;20485;-69
2022/03/15 05:50:55;;;;;;;38.90;12.98;;;3.20;99.90;;;;;;4993159;28;20045;-69
2022/03/15 05:53:21;;;;;;;37.03;13.38;;;3.30;99.90;;;;;;4955484;28;20045;-69
2022/03/15 05:55:46;;;;;;;42.45;14.88;;;3.40;99.90;;;;;;4952960;28;20053;-70
2022/03/15 05:58:14;;;;;;;51.55;16.20;;;3.40;99.90;;;;;;4977432;28;20054;-70
2022/03/15 06:00:40;;;;;;;39.63;16.02;;;3.50;99.90;;;;;;4987329;28;20056;-70
2022/03/15 06:03:06;;;;;;;44.90;16.92;;;3.50;99.90;;;;;;4985168;28;20057;-70
2022/03/15 06:05:33;;;;;;;38.15;15.40;;;3.60;99.90;;;;;;4984081;28;20109;-70
2022/03/15 06:07:59;;;;;;;39.45;15.07;;;3.60;99.90;;;;;;4960765;28;20053;-70
2022/03/15 06:10:28;;;;;;;28.83;13.98;;;3.70;99.90;;;;;;4966787;28;20043;-69
2022/03/15 06:12:54;;;;;;;36.83;15.03;;;3.70;99.90;;;;;;4997565;28;20054;-70
2022/03/15 06:15:21;;;;;;;34.13;14.85;;;3.70;99.90;;;;;;4955704;28;20304;-70
2022/03/15 06:17:56;;;;;;;30.35;13.30;;;3.70;99.90;;;;;;4968957;28;20110;-70
2022/03/15 06:20:22;;;;;;;35.42;13.88;;;3.70;99.90;;;;;;4976614;28;20058;-70
2022/03/15 06:22:49;;;;;;;27.33;13.07;;;3.80;99.90;;;;;;4986883;28;20042;-70
2022/03/15 06:25:15;;;;;;;35.03;14.45;;;3.80;99.90;;;;;;4988084;28;20043;-70
2022/03/15 06:27:42;;;;;;;34.00;13.73;;;3.80;99.90;;;;;;4970461;28;20451;-70
2022/03/15 06:30:08;;;;;;;43.75;15.50;;;3.80;99.90;;;;;;4989027;28;20058;-70
2022/03/15 06:32:35;;;;;;;43.40;16.23;;;3.90;99.90;;;;;;5003844;28;20390;-70
2022/03/15 06:35:06;;;;;;;41.67;16.95;;;3.90;99.90;;;;;;4989116;28;20088;-70
2022/03/15 06:37:35;;;;;;;40.60;16.27;;;4.00;99.90;;;;;;4976326;28;20054;-70
2022/03/15 06:40:00;;;;;;;34.63;15.52;;;4.10;99.90;;;;;;4992280;28;20111;-70
2022/03/15 06:42:27;;;;;;;41.28;15.13;;;4.10;99.90;;;;;;4983098;28;20057;-70
2022/03/15 06:44:53;;;;;;;40.28;16.75;;;4.10;99.90;;;;;;5023837;28;20041;-70
2022/03/15 06:47:19;;;;;;;38.60;15.85;;;4.20;99.90;;;;;;4991370;28;20061;-70
2022/03/15 06:49:46;;;;;;;51.10;15.00;;;4.20;99.90;;;;;;4991781;28;20084;-69
2022/03/15 06:52:12;;;;;;;32.70;14.73;;;4.10;99.90;;;;;;4965496;28;20562;-70
2022/03/15 06:54:38;;;;;;;38.72;15.20;;;4.20;99.90;;;;;;4998161;28;20054;-70
2022/03/15 06:57:04;;;;;;;47.83;16.42;;;4.20;99.90;;;;;;4989805;28;20050;-70
2022/03/15 06:59:29;;;;;;;33.08;15.27;;;4.30;99.90;;;;;;4971644;28;20129;-69
2022/03/15 07:01:55;;;;;;;35.40;15.07;;;4.30;99.90;;;;;;4988825;28;20038;-70
2022/03/15 07:04:21;;;;;;;35.85;15.93;;;4.30;99.90;;;;;;4976966;28;20474;-70
2022/03/15 07:06:47;;;;;;;30.27;15.00;;;4.40;99.90;;;;;;5004967;28;20054;-70
2022/03/15 07:09:12;;;;;;;42.00;16.27;;;4.40;99.90;;;;;;4968565;28;20510;-70
2022/03/15 07:11:38;;;;;;;37.67;15.98;;;4.40;99.90;;;;;;4979125;28;20050;-70
2022/03/15 07:14:04;;;;;;;35.97;16.48;;;4.50;99.90;;;;;;4971418;28;20051;-70
2022/03/15 07:16:31;;;;;;;43.00;17.52;;;4.50;99.90;;;;;;4980486;28;20050;-71
2022/03/15 07:18:57;;;;;;;58.30;17.95;;;4.50;99.90;;;;;;4962711;28;20065;-70
2022/03/15 07:21:23;;;;;;;40.60;18.05;;;4.60;99.90;;;;;;4968165;28;20515;-70
2022/03/15 07:23:48;;;;;;;47.97;18.58;;;4.60;99.90;;;;;;4968250;28;20051;-70
2022/03/15 07:26:14;;;;;;;47.00;19.00;;;4.70;99.90;;;;;;4983756;28;20050;-70
2022/03/15 07:28:40;;;;;;;54.58;19.30;;;4.80;99.90;;;;;;4984017;28;20100;-70
2022/03/15 07:31:05;;;;;;;45.78;18.02;;;4.80;99.90;;;;;;4951881;28;20054;-70
2022/03/15 07:33:32;;;;;;;46.00;18.20;;;4.80;99.90;;;;;;4968001;28;20113;-70
2022/03/15 07:36:01;;;;;;;51.03;20.70;;;4.90;99.90;;;;;;4990942;28;20057;-70
2022/03/15 07:38:27;;;;;;;56.22;21.40;;;5.00;99.90;;;;;;4959495;28;20488;-70
2022/03/15 07:40:53;;;;;;;51.78;20.98;;;5.00;99.90;;;;;;4968669;28;20489;-70
2022/03/15 07:43:22;;;;;;;50.72;22.63;;;5.10;99.90;;;;;;4972875;28;20057;-70
2022/03/15 07:45:48;;;;;;;58.45;23.88;;;5.10;99.90;;;;;;4951514;28;20117;-70
2022/03/15 07:48:14;;;;;;;48.25;22.13;;;5.20;99.90;;;;;;4951820;28;20554;-70
2022/03/15 07:50:40;;;;;;;43.97;21.48;;;5.20;99.90;;;;;;4992747;28;20089;-70
2022/03/15 07:53:06;;;;;;;43.45;20.58;;;5.30;99.90;;;;;;4983943;28;20050;-70
2022/03/15 07:55:34;;;;;;;51.58;19.65;;;5.30;99.90;;;;;;4954462;28;20389;-70
2022/03/15 07:58:00;;;;;;;37.58;19.27;;;5.30;99.90;;;;;;4977369;28;20062;-70
2022/03/15 08:00:26;;;;;;;44.17;17.83;;;5.40;99.90;;;;;;4996516;28;20080;-69
2022/03/15 08:02:52;;;;;;;42.45;17.00;;;5.40;99.90;;;;;;4958523;28;20049;-70
2022/03/15 08:05:19;;;;;;;37.92;19.95;;;5.40;99.90;;;;;;4972288;28;20042;-70
2022/03/15 08:07:45;;;;;;;39.13;19.15;;;5.40;99.90;;;;;;4997190;28;20536;-70
2022/03/15 08:10:11;;;;;;;40.35;19.33;;;5.50;99.90;;;;;;4970860;28;20077;-70
2022/03/15 08:12:42;;;;;;;36.65;18.55;;;5.50;99.90;;;;;;4973921;28;20133;-70
2022/03/15 08:15:10;;;;;;;34.60;17.15;;;5.60;99.90;;;;;;4973528;28;20559;-70
2022/03/15 08:17:37;;;;;;;37.95;17.17;;;5.60;99.90;;;;;;4986585;28;20071;-70
2022/03/15 08:20:03;;;;;;;34.13;17.27;;;5.60;99.90;;;;;;4989798;28;20045;-70
2022/03/15 08:22:30;;;;;;;38.67;19.08;;;5.70;99.90;;;;;;4992818;28;20049;-70
2022/03/15 08:24:57;;;;;;;40.45;18.98;;;5.70;99.90;;;;;;4987128;28;20053;-70
2022/03/15 08:27:23;;;;;;;33.47;17.60;;;5.80;99.90;;;;;;4988539;28;20365;-70
2022/03/15 08:29:49;;;;;;;46.53;19.48;;;5.90;99.90;;;;;;4972702;28;20068;-70
2022/03/15 08:32:15;;;;;;;37.83;18.88;;;5.90;99.90;;;;;;4987400;28;20105;-70
2022/03/15 08:34:42;;;;;;;29.77;17.45;;;6.00;99.90;;;;;;4971698;28;20052;-70
2022/03/15 08:37:09;;;;;;;37.75;17.92;;;6.00;99.90;;;;;;4972384;28;20065;-71
2022/03/15 08:39:35;;;;;;;38.22;18.20;;;6.00;99.90;;;;;;4956078;28;20084;-70
2022/03/15 08:42:01;;;;;;;40.60;18.50;;;6.00;99.90;;;;;;4970990;28;20567;-71
2022/03/15 08:44:26;;;;;;;39.55;18.70;;;6.10;99.90;;;;;;4987683;28;20133;-70
2022/03/15 08:46:52;;;;;;;44.78;18.15;;;6.10;99.90;;;;;;4988545;28;20422;-70
2022/03/15 08:49:19;;;;;;;49.25;17.83;;;6.10;99.90;;;;;;5006034;28;20067;-70
2022/03/15 08:51:46;;;;;;;41.17;19.17;;;6.20;99.90;;;;;;4983012;28;20531;-70
2022/03/15 08:54:12;;;;;;;33.92;18.77;;;6.20;99.90;;;;;;4989694;28;20489;-70
2022/03/15 08:56:42;;;;;;;43.53;19.63;;;6.20;99.90;;;;;;4987112;28;20066;-70
2022/03/15 08:59:09;;;;;;;39.88;19.55;;;6.20;99.90;;;;;;4948144;28;20085;-70
2022/03/15 09:01:37;;;;;;;39.22;18.45;;;6.20;99.90;;;;;;4969018;28;20038;-70
2022/03/15 09:04:02;;;;;;;34.58;18.17;;;6.20;99.90;;;;;;4969506;28;20048;-70
2022/03/15 09:06:28;;;;;;;36.92;18.77;;;6.20;99.90;;;;;;4967752;28;20050;-70
2022/03/15 09:08:54;;;;;;;34.88;18.20;;;6.20;99.90;;;;;;4969209;28;20089;-71
2022/03/15 09:11:20;;;;;;;44.97;19.95;;;6.20;99.90;;;;;;4966813;28;20456;-70
2022/03/15 09:13:45;;;;;;;39.38;19.85;;;6.20;99.90;;;;;;4959484;28;20039;-71
2022/03/15 09:16:13;;;;;;;38.25;18.55;;;6.30;99.90;;;;;;4969395;28;20038;-70
2022/03/15 09:18:39;;;;;;;42.72;21.60;;;6.30;99.90;;;;;;5001937;28;20069;-71
2022/03/15 09:21:06;;;;;;;45.05;20.63;;;6.40;99.90;;;;;;4986021;28;20046;-71
2022/03/15 09:23:33;;;;;;;42.38;21.80;;;6.40;99.90;;;;;;4965868;28;20552;-71
2022/03/15 09:25:59;;;;;;;48.15;21.73;;;6.40;99.90;;;;;;4967047;28;20054;-71
2022/03/15 09:28:25;;;;;;;50.03;20.83;;;6.50;99.90;;;;;;4967373;28;20050;-71
2022/03/15 09:30:50;;;;;;;42.63;21.75;;;6.50;99.90;;;;;;4968420;28;20049;-70
2022/03/15 09:33:16;;;;;;;39.38;20.73;;;6.50;99.90;;;;;;4968925;28;20047;-70
2022/03/15 09:35:42;;;;;;;42.15;20.48;;;6.60;99.90;;;;;;4966346;28;20121;-70
2022/03/15 09:38:09;;;;;;;42.58;21.15;;;6.60;99.90;;;;;;4967708;28;20049;-71
2022/03/15 09:40:36;;;;;;;48.88;22.98;;;6.60;99.90;;;;;;4984204;28;20057;-71
2022/03/15 09:43:03;;;;;;;38.53;21.10;;;6.70;99.90;;;;;;4967092;28;20047;-71
2022/03/15 09:45:35;;;;;;;39.92;22.20;;;6.70;99.90;;;;;;4965666;28;20045;-71
2022/03/15 09:48:04;;;;;;;44.67;22.42;;;6.80;99.90;;;;;;4966192;28;20089;-71
2022/03/15 09:50:30;;;;;;;41.95;22.98;;;6.90;99.90;;;;;;4968686;28;20100;-71
2022/03/15 09:52:58;;;;;;;48.13;25.70;;;7.00;99.90;;;;;;4951483;28;20046;-71
2022/03/15 09:55:25;;;;;;;50.67;22.98;;;7.10;99.90;;;;;;4953579;28;20117;-71
2022/03/15 09:57:52;;;;;;;45.58;23.40;;;7.30;99.90;;;;;;4958968;28;20104;-71
2022/03/15 10:00:19;;;;;;;48.28;23.95;;;7.40;99.90;;;;;;5004886;28;20045;-70
2022/03/15 10:02:51;;;;;;;44.75;23.67;;;7.50;99.90;;;;;;4986948;28;20060;-71
2022/03/15 10:05:18;;;;;;;43.55;23.30;;;7.60;99.90;;;;;;4990162;28;20561;-71
2022/03/15 10:07:45;;;;;;;48.35;24.95;;;7.80;99.90;;;;;;4986056;28;20054;-70
2022/03/15 10:10:14;;;;;;;45.50;23.70;;;7.80;99.90;;;;;;4973242;28;20053;-70
2022/03/15 10:12:40;;;;;;;48.47;25.40;;;8.00;99.90;;;;;;4970936;28;20506;-71
2022/03/15 10:15:18;;;;;;;46.60;22.77;;;8.20;99.90;;;;;;4986018;28;20058;-70
2022/03/15 10:18:04;;;;;;;38.15;23.17;;;8.30;99.90;;;;;;4970971;28;20085;-70
2022/03/15 10:20:37;;;;;;;48.60;23.65;;;8.50;99.90;;;;;;4971818;28;20046;-70
2022/03/15 10:23:04;;;;;;;40.13;23.30;;;8.70;99.90;;;;;;4971546;28;20038;-70
2022/03/15 10:25:32;;;;;;;45.03;23.27;;;9.00;99.90;;;;;;5021077;28;20088;-70
2022/03/15 10:28:00;;;;;;;41.25;23.73;;;9.20;99.90;;;;;;4986761;28;20049;-70
2022/03/15 10:30:28;;;;;;;42.22;21.77;;;9.20;99.90;;;;;;4985762;28;20412;-70
2022/03/15 10:32:54;;;;;;;42.28;21.58;;;9.40;99.90;;;;;;4970118;28;20038;-70
2022/03/15 10:35:23;;;;;;;44.47;21.58;;;9.40;99.90;;;;;;4982462;28;20047;-70
2022/03/15 10:37:50;;;;;;;39.15;23.10;;;9.40;99.90;;;;;;4969688;28;20109;-70
2022/03/15 10:40:17;;;;;;;41.67;23.40;;;9.50;99.90;;;;;;4970603;28;20484;-70
2022/03/15 10:42:44;;;;;;;44.22;21.60;;;9.70;99.90;;;;;;4971086;28;20077;-70
2022/03/15 10:45:21;;;;;;;37.50;22.13;;;9.80;99.90;;;;;;4985421;28;20125;-70
2022/03/15 10:47:52;;;;;;;38.97;22.30;;;9.80;99.90;;;;;;4982351;28;20133;-70
2022/03/15 10:50:19;;;;;;;42.25;23.15;;;9.90;99.90;;;;;;5003046;28;20110;-69
2022/03/15 10:52:46;;;;;;;35.90;22.83;;;10.00;99.90;;;;;;4984356;28;20093;-69
2022/03/15 10:55:27;;;;;;;36.88;21.63;;;10.00;99.90;;;;;;4986799;28;20133;-69
2022/03/15 10:58:03;;;;;;;44.17;22.15;;;10.00;99.90;;;;;;4979820;28;20141;-70
2022/03/15 11:00:38;;;;;;;36.75;20.67;;;10.00;99.90;;;;;;5000175;28;20038;-70
2022/03/15 11:03:25;;;;;;;34.92;19.40;;;10.00;99.90;;;;;;4969306;28;20054;-70
2022/03/15 11:05:57;;;;;;;37.67;21.67;;;9.90;99.90;;;;;;4950038;28;20056;-69
2022/03/15 11:08:23;;;;;;;37.83;20.80;;;9.80;99.90;;;;;;4964869;28;20408;-70
2022/03/15 11:10:53;;;;;;;37.72;21.20;;;9.70;99.90;;;;;;4969309;28;20042;-70
2022/03/15 11:13:28;;;;;;;36.15;19.88;;;9.70;99.90;;;;;;4968678;28;20051;-70
2022/03/15 11:15:56;;;;;;;36.95;19.05;;;9.80;99.90;;;;;;4986671;28;20407;-70
2022/03/15 11:18:29;;;;;;;37.47;21.80;;;9.70;99.90;;;;;;4955242;28;20471;-70
2022/03/15 11:20:57;;;;;;;42.83;22.52;;;9.70;99.90;;;;;;4972491;28;20040;-70
2022/03/15 11:23:25;;;;;;;30.27;18.70;;;9.80;99.90;;;;;;4987421;28;20173;-69
2022/03/15 11:26:02;;;;;;;34.67;20.30;;;9.80;99.90;;;;;;4990155;28;20702;-70
2022/03/15 11:28:31;;;;;;;34.15;20.60;;;9.80;99.90;;;;;;4988542;28;20057;-70
2022/03/15 11:30:58;;;;;;;39.92;19.83;;;9.70;99.90;;;;;;4958721;28;20044;-70
2022/03/15 11:33:26;;;;;;;31.23;20.45;;;9.70;99.90;;;;;;4990028;28;20341;-70
2022/03/15 11:35:52;;;;;;;35.45;21.30;;;9.70;99.90;;;;;;4970330;28;20496;-70
2022/03/15 11:38:18;;;;;;;37.20;20.27;;;9.70;99.90;;;;;;4968638;28;20480;-70
2022/03/15 11:40:45;;;;;;;31.42;19.73;;;9.70;99.90;;;;;;4969336;28;20061;-70
2022/03/15 11:43:33;;;;;;;34.33;17.73;;;9.70;99.90;;;;;;4970882;28;20381;-70
2022/03/15 11:46:21;;;;;;;38.00;18.10;;;9.80;99.90;;;;;;4986101;28;20045;-69
2022/03/15 11:49:31;;;;;;;31.70;17.70;;;9.90;99.90;;;;;;4969149;28;20057;-70
2022/03/15 11:52:11;;;;;;;36.67;18.60;;;10.00;99.90;;;;;;4968776;28;20109;-69
2022/03/15 11:55:02;;;;;;;27.23;16.92;;;10.10;99.90;;;;;;4985516;28;20122;-70
2022/03/15 11:57:40;;;;;;;30.27;16.92;;;10.10;99.90;;;;;;4987448;28;20062;-70
2022/03/15 12:00:06;;;;;;;32.88;18.67;;;10.30;99.90;;;;;;4988813;28;20810;-70
2022/03/15 12:02:39;;;;;;;25.50;16.45;;;10.30;99.90;;;;;;4986719;28;20046;-70
2022/03/15 12:05:17;;;;;;;24.90;14.13;;;10.30;99.90;;;;;;4985873;28;20072;-70
2022/03/15 12:07:46;;;;;;;24.77;12.98;;;10.40;99.90;;;;;;4971725;28;20050;-70
2022/03/15 12:10:26;;;;;;;21.67;12.95;;;10.50;99.90;;;;;;5007860;28;20050;-70
2022/03/15 12:13:04;;;;;;;22.00;13.00;;;10.60;99.90;;;;;;4971766;28;20053;-70
2022/03/15 12:15:42;;;;;;;28.00;13.80;;;10.50;99.90;;;;;;5004132;28;20042;-70
2022/03/15 12:21:11;;;;;;;22.52;13.02;;;10.60;99.90;;;;;;4970174;28;20472;-70
2022/03/15 12:23:50;;;;;;;23.58;13.68;;;10.60;99.90;;;;;;4973532;28;20046;-70
2022/03/15 12:26:29;;;;;;;24.05;13.40;;;10.60;99.90;;;;;;4989874;28;20061;-69
2022/03/15 12:29:04;;;;;;;24.15;13.77;;;10.60;99.90;;;;;;4989392;28;20133;-70
2022/03/15 12:31:39;;;;;;;23.15;14.10;;;10.60;99.90;;;;;;5007038;28;20117;-70
2022/03/15 12:34:08;;;;;;;28.25;14.60;;;10.70;99.90;;;;;;4989328;28;20053;-70
2022/03/15 12:36:59;;;;;;;31.67;16.03;;;10.70;99.90;;;;;;4989269;28;20046;-70
2022/03/15 12:39:31;;;;;;;27.13;14.75;;;10.90;99.90;;;;;;4989692;28;20042;-70
2022/03/15 12:42:12;;;;;;;31.40;15.50;;;10.90;99.90;;;;;;4973041;28;20049;-70
2022/03/15 12:44:46;;;;;;;22.60;14.60;;;11.00;99.90;;;;;;4989341;28;20045;-70
2022/03/15 12:47:15;;;;;;;23.45;14.70;;;11.10;99.90;;;;;;4972680;28;20046;-70